Weather Center

VHHH METAR :
VHHH 200400Z 25007KT 9999 VCSH FEW015 SCT025 31/25 Q1011 NOSIG

VHHH TAF :
VHHH 192300Z 2000/2106 10010KT 9999 FEW015 SCT025 TX33/2006Z TX33/2106Z
TN28/2022Z
TEMPO 2000/2003 VRB05KT 4000 SHRA FEW010CB SCT020
TEMPO 2003/2009 27010KT
TEMPO 2018/2103 VRB05KT
TEMPO 2021/2103 4000 SHRA FEW010CB SCT020
TEMPO 2103/2106 27010KT

VMMC METAR :
VMMCH

VMMC TAF :
VMMC 192300Z 2000/2106 VRB03KT 9999 FEW015 SCT025
TEMPO 2000/2006 VRB15G25KT 3500 SHRA FEW010CB SCT020
TEMPO 2007/2012 13010KT
TEMPO 2018/2024 3500 SHRA FEW010CB SCT020

Comments are closed